EETN Airport Information

Runway Information
Runway 08 Length 11417 ft width 148 ft
Elevation 129 ft Threshold 820 ft Heading 90
Runway 26 Length 11417 ft Width 148 ft
Elevation 131 ft Threshold ft Heading 270
Airport Frequencies
Type APP Name APP Frequency 127.9 MHZ
Type ATIS Name ATIS Frequency 124.875 MHZ
Type TWR Name TWR Frequency 120.6 MHZ
Airport Navaids
Type NDB Name Tallinn Frequency 329 KHZ
Type NDB Name Tallinn Frequency 386 KHZ
Type VOR-DME Name Tallinn Frequency 112200 KHZ
Airport Weather Information & NOTAM
ADDS - METARS form results

(1733 UTC 03 July 2022)
Data provider http://aviationweather.gov/metar/data/
 
METAR text: EETN 031720Z 28013KT CAVOK 21/12 Q1018 NOSIG
Conditions at: EETN (TALLINN , EE) observed 1720 UTC 03 July 2022
Temperature: 21.0°C (70°F)
Dewpoint: 12.0°C (54°F) [RH = 56%]
Pressure (altimeter): 30.06 inches Hg (1018.0 mb)
Winds: from the W (280 degrees) at 15 MPH (13 knots; 6.7 m/s)
Visibility: 6 or more miles (10+ km)
Ceiling: ceiling and visibility are OK
Clouds: unknown
Weather: no significant weather observed at this time

METAR text: EETN 031650Z 27014KT CAVOK 21/11 Q1018 NOSIG
Conditions at: EETN (TALLINN , EE) observed 1650 UTC 03 July 2022
Temperature: 21.0°C (70°F)
Dewpoint: 11.0°C (52°F) [RH = 53%]
Pressure (altimeter): 30.06 inches Hg (1018.0 mb)
Winds: from the W (270 degrees) at 16 MPH (14 knots; 7.2 m/s)
Visibility: 6 or more miles (10+ km)
Ceiling: ceiling and visibility are OK
Clouds: unknown
Weather: no significant weather observed at this time

Forecast for: EETN (TALLINN , EE)
Text: TAF EETN 031730Z 0318/0418 28012KT CAVOK
Forecast period: 1800 to 1900 UTC 03 July 2022
Forecast type: FROM: standard forecast or significant change
Winds: from the W (280 degrees) at 14 MPH (12 knots; 6.2 m/s)
Visibility: 6 or more miles (10+ km)
Ceiling: unknown
Clouds: missing
Weather: NSW  (no significant weather)
Text: BECMG 0319/0321 VRB02KT
Forecast period: 1900 UTC 03 July 2022 to 1800 UTC 04 July 2022
Forecast type: BECOMING: Conditions expected to become as follows by 2100 UTC 03 July 2022
Winds: variable direction winds at 2 MPH (2 knots; 1.0 m/s)
Visibility: 6 or more miles (10+ km)
Ceiling: unknown
Clouds: missing
Weather: NSW  (no significant weather)
Text: PROB40
Forecast period: 2300 UTC 03 July 2022 to 0300 UTC 04 July 2022
Forecast type: TEMPORARY: The following changes expected for less than half the time period
Visibility: 1.86 miles (2.99 km)
Ceiling: unknown
Clouds: missing
Weather: MIFG BR  (shallow fog, mist)